Kerinci, Indonesia

9:28 PM WIB on December 04, 2016 (GMT +0700)
Sultan Syarif Kasim Ii | | Change Station

Elev 102 ft 0.46 °N, 101.44 °E | Updated 28 minutes ago

Partly Cloudy
Partly Cloudy
82 °F
Feels Like 91 °F
N
0
Wind Variable Wind from North

Today
High -- | Low -- °F
--% Chance of Precip.
Yesterday
High -- | Low -- °F
Precip. -- in
Pressure 29.77 in
Visibility 5.0 miles
Clouds Few 2000 ft
Heat Index 91 °F
Dew Point 77 °F
Humidity 84%
Rainfall 0.00 in
Snow Depth Not available.
5:59 AM 6:05 PM
Waxing Crescent, 23% visible
METAR WIBB 041400Z 00000KT 8000 FEW020 28/25 Q1008
Pressure 29.77 in
Visibility 5.0 miles
Clouds Few 2000 ft
Heat Index 91 °F
Dew Point 77 °F
Humidity 84%
Rainfall 0.00 in
Snow Depth Not available.
5:59 AM 6:05 PM
Waxing Crescent, 23% visible
METAR WIBB 041400Z 00000KT 8000 FEW020 28/25 Q1008

10-Day Weather Forecast

×

Almanac

Astronomy

Dec. 04, 2016 Rise Set
Actual Time
Civil Twilight
Nautical Twilight
Astronomical Twilight
Moon
Length of Visible Light
Length of Day
Tomorrow will be .
, % of the Moon is Illuminated

Today's Extremes

Country Highs Country Lows

Community

WunderPhotos

Upload Photos

1,955,598 photos uploaded!

WunderBlog® & News

Nearby

Air Quality

  Air Quality AQ Index Pollutant
Not available.

Snow Depth

Station Depth Elevation

Earthquake Activity

City Distance Mag. Time & Date
Minimum magnitude displayed is 2.5.

Coastal Water Temperatures

Place Temperature

Stations

Nearby Weather Stations

Station Location Temp. Windchill Dew Point Humidity Wind Precip. Elev Updated Type